createdAt,value
2023-03-11T00:00:29.847Z,6.73
2023-03-11T00:03:18.447Z,6.78
2023-03-11T00:05:46.478Z,6.81
2023-03-11T00:08:19.372Z,6.84
2023-03-11T00:10:48.062Z,6.87
2023-03-11T00:13:16.341Z,6.90
2023-03-11T00:15:47.830Z,6.92
2023-03-11T00:18:14.952Z,6.97
2023-03-11T00:20:44.592Z,6.96
2023-03-11T00:23:12.835Z,6.97
2023-03-11T00:25:40.130Z,6.97
2023-03-11T00:28:07.177Z,6.97
2023-03-11T00:30:34.556Z,6.99
2023-03-11T00:33:01.964Z,6.91
2023-03-11T00:35:33.335Z,6.87
2023-03-11T00:38:06.791Z,6.94
2023-03-11T00:40:35.652Z,6.97
2023-03-11T00:43:03.557Z,7.01
2023-03-11T00:45:31.026Z,7.02
2023-03-11T00:47:58.173Z,7.00
2023-03-11T00:50:28.687Z,6.98
2023-03-11T00:52:57.106Z,7.00
2023-03-11T00:55:28.592Z,7.00
2023-03-11T00:57:59.584Z,7.01
2023-03-11T01:00:31.234Z,7.04
2023-03-11T01:02:59.714Z,7.03
2023-03-11T01:05:29.968Z,7.04
2023-03-11T01:07:57.585Z,7.10
2023-03-11T01:10:25.275Z,7.17
2023-03-11T01:12:52.250Z,7.24
2023-03-11T01:15:29.114Z,7.29
2023-03-11T01:17:56.553Z,7.36
2023-03-11T01:20:23.613Z,7.40
2023-03-11T01:22:51.064Z,7.43
2023-03-11T01:25:20.361Z,7.43
2023-03-11T01:27:47.628Z,7.45
2023-03-11T01:30:18.437Z,7.45
2023-03-11T01:32:46.022Z,7.49
2023-03-11T01:35:15.731Z,7.51
2023-03-11T01:37:43.498Z,7.52
2023-03-11T01:40:32.661Z,7.52
2023-03-11T01:43:05.757Z,7.50
2023-03-11T01:45:51.634Z,7.44
2023-03-11T01:48:21.872Z,7.43
2023-03-11T01:50:50.451Z,7.39
2023-03-11T01:53:18.142Z,7.39
2023-03-11T01:55:47.409Z,7.38
2023-03-11T01:58:23.751Z,7.34
2023-03-11T02:00:51.035Z,7.30
2023-03-11T02:03:23.824Z,7.34
2023-03-11T02:05:53.585Z,7.36
2023-03-11T02:08:20.514Z,7.34
2023-03-11T02:10:51.906Z,7.28
2023-03-11T02:13:20.414Z,7.21
2023-03-11T02:15:47.556Z,7.20
2023-03-11T02:18:15.425Z,7.21
2023-03-11T02:21:03.069Z,7.24
2023-03-11T02:23:43.669Z,7.30
2023-03-11T02:26:23.497Z,7.35
2023-03-11T02:28:52.693Z,7.41
2023-03-11T02:31:20.461Z,7.43
2023-03-11T02:33:52.624Z,7.42
2023-03-11T02:36:38.417Z,7.34
2023-03-11T02:39:07.406Z,7.29
2023-03-11T02:41:38.678Z,7.28
2023-03-11T02:44:10.011Z,7.29
2023-03-11T02:46:40.826Z,7.31
2023-03-11T02:49:09.540Z,7.34
2023-03-11T02:51:36.585Z,7.39
2023-03-11T02:54:05.385Z,7.38
2023-03-11T02:56:32.932Z,7.37
2023-03-11T02:58:59.809Z,7.29
2023-03-11T03:01:28.573Z,7.19
2023-03-11T03:03:55.503Z,7.18
2023-03-11T03:06:22.445Z,7.17
2023-03-11T03:08:50.125Z,7.22
2023-03-11T03:11:17.003Z,7.24
2023-03-11T03:13:44.119Z,7.25
2023-03-11T03:16:12.173Z,7.26
2023-03-11T03:18:39.449Z,7.30
2023-03-11T03:21:08.335Z,7.32
2023-03-11T03:23:37.242Z,7.34
2023-03-11T03:26:05.433Z,7.32
2023-03-11T03:28:32.990Z,7.33
2023-03-11T03:31:05.141Z,7.35
2023-03-11T03:33:32.504Z,7.28
2023-03-11T03:36:00.007Z,7.25
2023-03-11T03:38:30.898Z,7.23
2023-03-11T03:40:57.877Z,7.22
2023-03-11T03:43:25.420Z,7.23
2023-03-11T03:46:03.867Z,7.19
2023-03-11T03:48:35.181Z,7.18
2023-03-11T03:51:06.560Z,7.19
2023-03-11T03:53:35.004Z,7.17
2023-03-11T03:56:07.176Z,7.07
2023-03-11T03:58:34.559Z,7.01
2023-03-11T04:01:03.874Z,6.99
2023-03-11T04:03:31.419Z,6.98
2023-03-11T04:06:07.717Z,6.94
2023-03-11T04:08:35.128Z,6.88
2023-03-11T04:11:03.088Z,6.82
2023-03-11T04:13:30.965Z,6.73
2023-03-11T04:15:58.722Z,6.75
2023-03-11T04:18:25.989Z,6.79
2023-03-11T04:20:53.442Z,6.88
2023-03-11T04:23:20.594Z,6.92
2023-03-11T04:25:47.648Z,6.92
2023-03-11T04:28:15.234Z,6.93
2023-03-11T04:30:44.109Z,6.87
2023-03-11T04:33:11.339Z,6.81
2023-03-11T04:35:39.051Z,6.77
2023-03-11T04:38:06.570Z,6.71
2023-03-11T04:40:33.746Z,6.66
2023-03-11T04:43:00.669Z,6.62
2023-03-11T04:45:27.923Z,6.61
2023-03-11T04:47:56.602Z,6.56
2023-03-11T04:50:23.658Z,6.54
2023-03-11T04:52:51.009Z,6.52
2023-03-11T04:55:18.678Z,6.50
2023-03-11T04:57:45.955Z,6.48
2023-03-11T05:00:15.139Z,6.44
2023-03-11T05:02:44.232Z,6.43
2023-03-11T05:05:11.790Z,6.41
2023-03-11T05:07:39.045Z,6.36
2023-03-11T05:10:06.912Z,6.27
2023-03-11T05:12:34.886Z,6.21
2023-03-11T05:15:03.081Z,6.16
2023-03-11T05:17:30.106Z,6.12
2023-03-11T05:19:57.522Z,6.09
2023-03-11T05:22:28.918Z,6.06
2023-03-11T05:24:56.166Z,6.05
2023-03-11T05:27:23.848Z,6.04
2023-03-11T05:29:53.560Z,6.02
2023-03-11T05:32:21.478Z,6.00
2023-03-11T05:34:49.199Z,5.98
2023-03-11T05:37:16.906Z,5.95
2023-03-11T05:39:44.115Z,5.91
2023-03-11T05:42:11.642Z,5.92
2023-03-11T05:44:39.144Z,5.92
2023-03-11T05:47:06.476Z,5.93
2023-03-11T05:49:34.295Z,5.99
2023-03-11T05:52:01.812Z,6.08
2023-03-11T05:54:29.475Z,6.14
2023-03-11T05:56:57.239Z,6.17
2023-03-11T05:59:24.698Z,6.20
2023-03-11T06:01:56.350Z,6.21
2023-03-11T06:04:24.559Z,6.25
2023-03-11T06:06:51.780Z,6.26
2023-03-11T06:09:19.869Z,6.28
2023-03-11T06:11:47.112Z,6.27
2023-03-11T06:14:15.302Z,6.26
2023-03-11T06:16:43.562Z,6.30
2023-03-11T06:19:11.023Z,6.30
2023-03-11T06:21:41.348Z,6.34
2023-03-11T06:24:08.783Z,6.41
2023-03-11T06:26:36.589Z,6.47
2023-03-11T06:29:04.036Z,6.46
2023-03-11T06:31:32.897Z,6.51
2023-03-11T06:34:05.917Z,6.55
2023-03-11T06:36:33.269Z,6.56
2023-03-11T06:39:00.315Z,6.60
2023-03-11T06:41:28.189Z,6.61
2023-03-11T06:43:59.328Z,6.62
2023-03-11T06:46:26.484Z,6.67
2023-03-11T06:48:54.157Z,6.70
2023-03-11T06:51:22.039Z,6.73
2023-03-11T06:53:51.941Z,6.75
2023-03-11T06:56:21.557Z,6.80
2023-03-11T06:58:53.331Z,6.86
2023-03-11T07:01:22.682Z,7.03
2023-03-11T07:03:51.079Z,7.22
2023-03-11T07:06:22.573Z,7.28
2023-03-11T07:08:52.578Z,7.52
2023-03-11T07:11:25.805Z,7.59
2023-03-11T07:13:55.647Z,7.54
2023-03-11T07:16:26.258Z,7.48
2023-03-11T07:18:58.571Z,7.62
2023-03-11T07:21:27.369Z,7.69
2023-03-11T07:23:56.875Z,7.77
2023-03-11T07:26:25.153Z,7.83
2023-03-11T07:28:55.075Z,7.88
2023-03-11T07:31:24.462Z,7.89
2023-03-11T07:33:51.668Z,7.86
2023-03-11T07:36:21.937Z,7.82
2023-03-11T07:38:53.972Z,7.79
2023-03-11T07:41:21.072Z,7.87
2023-03-11T07:43:48.017Z,7.82
2023-03-11T07:46:21.955Z,7.78
2023-03-11T07:48:49.999Z,7.82
2023-03-11T07:51:20.009Z,7.78
2023-03-11T07:53:48.027Z,7.72
2023-03-11T07:56:16.565Z,7.63
2023-03-11T07:58:45.838Z,7.70
2023-03-11T08:01:16.828Z,7.65
2023-03-11T08:03:45.886Z,7.56
2023-03-11T08:06:21.313Z,7.54
2023-03-11T08:08:49.054Z,7.58
2023-03-11T08:11:17.711Z,7.60
2023-03-11T08:13:46.564Z,7.65
2023-03-11T08:16:15.509Z,7.79
2023-03-11T08:18:43.415Z,7.84
2023-03-11T08:21:15.703Z,7.74
2023-03-11T08:23:43.498Z,7.80
2023-03-11T08:26:12.866Z,7.84
2023-03-11T08:28:40.056Z,7.88
2023-03-11T08:31:23.747Z,7.83
2023-03-11T08:33:52.797Z,7.89
2023-03-11T08:36:20.481Z,7.86
2023-03-11T08:38:47.535Z,7.85
2023-03-11T08:41:15.309Z,7.96
2023-03-11T08:43:43.862Z,8.08
2023-03-11T08:46:20.749Z,8.21
2023-03-11T08:48:47.822Z,8.37
2023-03-11T08:51:15.445Z,8.62
2023-03-11T08:53:42.245Z,8.99
2023-03-11T08:56:09.345Z,9.25
2023-03-11T08:58:36.589Z,9.43
2023-03-11T09:01:04.883Z,9.62
2023-03-11T09:03:34.896Z,9.93
2023-03-11T09:06:04.658Z,9.99
2023-03-11T09:08:31.765Z,10.14
2023-03-11T09:10:58.912Z,10.14
2023-03-11T09:13:26.180Z,10.41
2023-03-11T09:15:53.569Z,10.43
2023-03-11T09:18:20.697Z,10.70
2023-03-11T09:20:47.624Z,10.44
2023-03-11T09:23:17.173Z,10.18
2023-03-11T09:25:44.388Z,10.24
2023-03-11T09:28:11.233Z,10.39
2023-03-11T09:30:38.081Z,10.10
2023-03-11T09:33:05.125Z,10.09
2023-03-11T09:35:32.235Z,10.05
2023-03-11T09:37:59.319Z,10.18
2023-03-11T09:40:38.763Z,10.24
2023-03-11T09:43:23.530Z,10.60
2023-03-11T09:45:59.161Z,10.48
2023-03-11T09:48:41.795Z,10.41
2023-03-11T09:51:26.970Z,10.12
2023-03-11T09:54:04.563Z,9.51
2023-03-11T09:56:35.054Z,8.75
2023-03-11T09:59:07.381Z,8.43
2023-03-11T10:01:42.380Z,8.29
2023-03-11T10:04:29.120Z,8.00
2023-03-11T10:06:57.080Z,7.85
2023-03-11T10:09:47.383Z,7.77
2023-03-11T10:12:36.049Z,7.84
2023-03-11T10:15:22.945Z,7.94
2023-03-11T10:18:11.403Z,7.92
2023-03-11T10:20:47.048Z,7.79
2023-03-11T10:23:29.058Z,7.78
2023-03-11T10:26:04.822Z,7.72
2023-03-11T10:29:06.981Z,7.71
2023-03-11T10:31:43.342Z,7.64
2023-03-11T10:34:26.165Z,7.51
2023-03-11T10:37:06.432Z,7.40
2023-03-11T10:39:33.880Z,7.37
2023-03-11T10:42:04.134Z,7.15
2023-03-11T10:44:35.660Z,7.15
2023-03-11T10:47:03.059Z,7.25
2023-03-11T10:49:30.891Z,7.38
2023-03-11T10:51:58.379Z,7.39
2023-03-11T10:54:28.259Z,7.21
2023-03-11T10:57:01.053Z,7.21
2023-03-11T10:59:33.220Z,7.00
2023-03-11T11:02:21.467Z,6.98
2023-03-11T11:04:50.464Z,6.84
2023-03-11T11:07:31.451Z,6.83
2023-03-11T11:10:21.422Z,6.79
2023-03-11T11:13:13.259Z,6.61
2023-03-11T11:15:50.338Z,6.36
2023-03-11T11:18:28.197Z,6.09
2023-03-11T11:21:08.407Z,5.99
2023-03-11T11:23:41.734Z,6.11
2023-03-11T11:26:23.917Z,5.84
2023-03-11T11:29:23.103Z,5.71
2023-03-11T11:31:49.947Z,5.72
2023-03-11T11:34:34.311Z,5.91
2023-03-11T11:37:05.731Z,5.89
2023-03-11T11:39:50.847Z,5.88
2023-03-11T11:42:22.872Z,6.11
2023-03-11T11:44:57.003Z,6.26
2023-03-11T11:47:29.389Z,6.30
2023-03-11T11:50:00.847Z,6.24
2023-03-11T11:52:32.544Z,6.12
2023-03-11T11:55:28.029Z,6.20
2023-03-11T11:57:54.862Z,6.15
2023-03-11T12:00:29.350Z,6.09
2023-03-11T12:03:16.531Z,6.16
2023-03-11T12:06:02.262Z,6.21
2023-03-11T12:09:05.243Z,6.01
2023-03-11T12:11:43.538Z,5.97
2023-03-11T12:14:35.420Z,5.76
2023-03-11T12:17:04.648Z,5.66
2023-03-11T12:19:37.217Z,5.39
2023-03-11T12:22:39.790Z,5.09
2023-03-11T12:25:28.143Z,4.94
2023-03-11T12:28:16.482Z,5.00
2023-03-11T12:30:49.839Z,5.25
2023-03-11T12:33:40.511Z,5.27
2023-03-11T12:36:25.511Z,5.08
2023-03-11T12:38:53.731Z,4.84
2023-03-11T12:41:33.171Z,4.65
2023-03-11T12:44:23.370Z,4.38
2023-03-11T12:47:00.716Z,4.47
2023-03-11T12:49:33.645Z,4.38
2023-03-11T12:52:15.751Z,4.31
2023-03-11T12:55:17.712Z,4.12
2023-03-11T12:57:53.475Z,4.18
2023-03-11T13:00:49.403Z,4.25
2023-03-11T13:03:35.702Z,4.16
2023-03-11T13:06:21.392Z,4.03
2023-03-11T13:08:51.512Z,3.89
2023-03-11T13:11:33.666Z,3.73
2023-03-11T13:14:29.149Z,3.61
2023-03-11T13:17:17.409Z,3.55
2023-03-11T13:19:49.456Z,3.45
2023-03-11T13:22:58.129Z,3.49
2023-03-11T13:25:29.320Z,3.66
2023-03-11T13:28:27.201Z,3.70
2023-03-11T13:31:03.283Z,3.76
2023-03-11T13:33:40.333Z,3.68
2023-03-11T13:36:41.834Z,3.55
2023-03-11T13:39:54.521Z,3.52
2023-03-11T13:42:33.676Z,3.55
2023-03-11T13:45:00.818Z,3.63
2023-03-11T13:47:30.752Z,3.62
2023-03-11T13:50:06.878Z,3.49
2023-03-11T13:53:07.617Z,3.36
2023-03-11T13:55:41.333Z,3.34
2023-03-11T13:58:28.396Z,3.33
2023-03-11T14:01:00.332Z,3.43
2023-03-11T14:03:36.119Z,3.48
2023-03-11T14:06:13.378Z,3.74
2023-03-11T14:08:41.433Z,3.78
2023-03-11T14:11:09.770Z,3.83
2023-03-11T14:13:54.961Z,3.92
2023-03-11T14:16:35.449Z,3.83
2023-03-11T14:19:18.774Z,3.68
2023-03-11T14:21:49.448Z,3.65
2023-03-11T14:24:23.353Z,3.57
2023-03-11T14:26:55.600Z,3.64
2023-03-11T14:29:33.350Z,3.63
2023-03-11T14:32:00.511Z,3.50
2023-03-11T14:34:29.600Z,3.45
2023-03-11T14:36:59.355Z,3.35
2023-03-11T14:39:34.928Z,3.26
2023-03-11T14:42:26.861Z,3.20
2023-03-11T14:45:04.595Z,3.09
2023-03-11T14:47:39.982Z,3.01
2023-03-11T14:50:15.960Z,2.98
2023-03-11T14:52:55.295Z,2.98
2023-03-11T14:55:27.441Z,2.92
2023-03-11T14:58:17.942Z,2.89
2023-03-11T15:00:50.005Z,2.77
2023-03-11T15:03:25.581Z,2.74
2023-03-11T15:05:56.222Z,2.72
2023-03-11T15:08:28.065Z,2.73
2023-03-11T15:11:05.850Z,2.82
2023-03-11T15:13:34.335Z,2.82
2023-03-11T15:16:04.259Z,2.73
2023-03-11T15:18:41.543Z,2.75
2023-03-11T15:21:20.312Z,2.65
2023-03-11T15:23:53.178Z,2.61
2023-03-11T15:26:24.356Z,2.56
2023-03-11T15:29:16.361Z,2.51
2023-03-11T15:31:46.111Z,2.55
2023-03-11T15:34:15.964Z,2.49
2023-03-11T15:36:48.945Z,2.43
2023-03-11T15:39:30.755Z,2.42
2023-03-11T15:42:03.241Z,2.42
2023-03-11T15:44:40.855Z,2.46
2023-03-11T15:47:20.088Z,2.43
2023-03-11T15:49:48.238Z,2.38
2023-03-11T15:52:15.941Z,2.39
2023-03-11T15:54:47.426Z,2.37
2023-03-11T15:57:24.263Z,2.34
2023-03-11T15:59:54.554Z,2.39
2023-03-11T16:02:27.548Z,2.37
2023-03-11T16:04:55.343Z,2.34
2023-03-11T16:07:38.146Z,2.36
2023-03-11T16:10:06.705Z,2.28
2023-03-11T16:12:33.759Z,2.24
2023-03-11T16:15:00.729Z,2.10
2023-03-11T16:17:31.844Z,2.06
2023-03-11T16:20:07.193Z,1.94
2023-03-11T16:22:36.516Z,1.90
2023-03-11T16:25:04.163Z,1.84
2023-03-11T16:27:31.009Z,1.80
2023-03-11T16:29:57.854Z,1.77
2023-03-11T16:32:24.629Z,1.77
2023-03-11T16:34:51.749Z,1.76
2023-03-11T16:37:21.327Z,1.72
2023-03-11T16:39:48.405Z,1.71
2023-03-11T16:42:23.420Z,1.69
2023-03-11T16:44:50.403Z,1.65
2023-03-11T16:47:17.749Z,1.61
2023-03-11T16:49:44.721Z,1.62
2023-03-11T16:52:11.635Z,1.60
2023-03-11T16:54:38.617Z,1.56
2023-03-11T16:57:05.752Z,1.52
2023-03-11T16:59:32.784Z,1.50
2023-03-11T17:01:59.826Z,1.51
2023-03-11T17:04:26.785Z,1.49
2023-03-11T17:06:54.469Z,1.45
2023-03-11T17:09:24.162Z,1.46
2023-03-11T17:11:52.960Z,1.50
2023-03-11T17:14:21.051Z,1.53
2023-03-11T17:16:47.973Z,1.55
2023-03-11T17:19:14.830Z,1.59
2023-03-11T17:21:41.970Z,1.64
2023-03-11T17:24:10.483Z,1.66
2023-03-11T17:26:37.704Z,1.64
2023-03-11T17:29:04.448Z,1.59
2023-03-11T17:31:31.452Z,1.55
2023-03-11T17:34:02.579Z,1.55
2023-03-11T17:36:29.512Z,1.55
2023-03-11T17:38:56.334Z,1.57
2023-03-11T17:41:23.210Z,1.60
2023-03-11T17:43:51.536Z,1.60
2023-03-11T17:46:20.103Z,1.58
2023-03-11T17:48:48.791Z,1.60
2023-03-11T17:51:25.126Z,1.59
2023-03-11T17:53:55.124Z,1.61
2023-03-11T17:56:22.377Z,1.63
2023-03-11T17:58:50.243Z,1.67
2023-03-11T18:01:20.932Z,1.66
2023-03-11T18:03:48.872Z,1.67
2023-03-11T18:06:17.956Z,1.64
2023-03-11T18:08:45.326Z,1.64
2023-03-11T18:11:16.415Z,1.67
2023-03-11T18:13:45.850Z,1.68
2023-03-11T18:16:21.965Z,1.65
2023-03-11T18:18:49.019Z,1.69
2023-03-11T18:21:21.945Z,1.70
2023-03-11T18:23:50.974Z,1.69
2023-03-11T18:26:18.803Z,1.72
2023-03-11T18:28:46.084Z,1.68
2023-03-11T18:31:19.165Z,1.66
2023-03-11T18:33:49.090Z,1.64
2023-03-11T18:36:22.041Z,1.62
2023-03-11T18:38:51.658Z,1.61
2023-03-11T18:41:18.503Z,1.64
2023-03-11T18:43:45.571Z,1.63
2023-03-11T18:46:15.888Z,1.62
2023-03-11T18:48:42.781Z,1.62
2023-03-11T18:51:10.592Z,1.61
2023-03-11T18:53:37.955Z,1.61
2023-03-11T18:56:08.124Z,1.62
2023-03-11T18:58:34.914Z,1.64
2023-03-11T19:01:06.234Z,1.65
2023-03-11T19:03:33.940Z,1.69
2023-03-11T19:06:00.887Z,1.69
2023-03-11T19:08:28.657Z,1.70
2023-03-11T19:10:55.805Z,1.73
2023-03-11T19:13:22.784Z,1.70
2023-03-11T19:15:50.214Z,1.73
2023-03-11T19:18:17.387Z,1.73
2023-03-11T19:20:44.202Z,1.75
2023-03-11T19:23:11.197Z,1.72
2023-03-11T19:25:39.033Z,1.76
2023-03-11T19:28:05.727Z,1.75
2023-03-11T19:30:32.532Z,1.74
2023-03-11T19:32:59.911Z,1.68
2023-03-11T19:35:26.736Z,1.66
2023-03-11T19:37:57.240Z,1.64
2023-03-11T19:40:29.310Z,1.62
2023-03-11T19:43:00.269Z,1.55
2023-03-11T19:45:31.601Z,1.17
2023-03-11T19:47:59.584Z,1.02
2023-03-11T19:50:26.612Z,0.75
2023-03-11T19:52:53.625Z,0.64
2023-03-11T19:55:20.434Z,0.51
2023-03-11T19:57:47.568Z,0.47
2023-03-11T20:00:14.987Z,0.43
2023-03-11T20:02:41.894Z,0.43
2023-03-11T20:05:09.559Z,0.35
2023-03-11T20:07:36.373Z,0.31
2023-03-11T20:10:03.975Z,0.31
2023-03-11T20:12:30.882Z,0.38
2023-03-11T20:14:57.966Z,0.39
2023-03-11T20:17:24.775Z,0.39
2023-03-11T20:19:51.722Z,0.39
2023-03-11T20:22:19.862Z,0.38
2023-03-11T20:24:47.253Z,0.34
2023-03-11T20:27:14.749Z,0.33
2023-03-11T20:29:41.558Z,0.30
2023-03-11T20:32:08.479Z,0.34
2023-03-11T20:34:36.991Z,0.37
2023-03-11T20:37:04.135Z,0.40
2023-03-11T20:39:30.990Z,0.55
2023-03-11T20:41:58.312Z,0.61
2023-03-11T20:44:25.620Z,0.67
2023-03-11T20:46:54.314Z,0.58
2023-03-11T20:49:21.788Z,0.59
2023-03-11T20:51:48.682Z,0.70
2023-03-11T20:54:16.461Z,0.70
2023-03-11T20:56:43.625Z,0.71
2023-03-11T20:59:13.616Z,0.72
2023-03-11T21:01:40.670Z,0.55
2023-03-11T21:04:07.623Z,0.56
2023-03-11T21:06:40.579Z,0.44
2023-03-11T21:09:12.159Z,0.19
2023-03-11T21:11:39.138Z,0.10
2023-03-11T21:14:06.771Z,-0.03
2023-03-11T21:16:34.712Z,-0.14
2023-03-11T21:19:04.933Z,-0.19
2023-03-11T21:21:32.222Z,-0.18
2023-03-11T21:23:59.615Z,-0.13
2023-03-11T21:26:26.469Z,-0.22
2023-03-11T21:28:54.192Z,-0.17
2023-03-11T21:31:24.714Z,-0.16
2023-03-11T21:33:54.646Z,-0.15
2023-03-11T21:36:22.257Z,-0.14
2023-03-11T21:38:50.274Z,-0.21
2023-03-11T21:41:20.197Z,-0.23
2023-03-11T21:43:47.806Z,-0.27
2023-03-11T21:46:18.533Z,-0.21
2023-03-11T21:48:47.022Z,-0.20
2023-03-11T21:51:15.654Z,-0.21
2023-03-11T21:53:43.104Z,-0.19
2023-03-11T21:56:10.295Z,-0.23
2023-03-11T21:58:37.336Z,-0.23
2023-03-11T22:01:04.992Z,-0.27
2023-03-11T22:03:35.198Z,-0.26
2023-03-11T22:06:08.231Z,-0.24
2023-03-11T22:08:35.338Z,-0.24
2023-03-11T22:11:05.993Z,-0.19
2023-03-11T22:13:33.230Z,-0.18
2023-03-11T22:16:06.792Z,-0.23
2023-03-11T22:18:34.077Z,-0.22
2023-03-11T22:21:01.694Z,-0.14
2023-03-11T22:23:29.030Z,-0.17
2023-03-11T22:25:55.950Z,-0.21
2023-03-11T22:28:23.388Z,-0.23
2023-03-11T22:30:50.363Z,-0.22
2023-03-11T22:33:17.914Z,-0.25
2023-03-11T22:35:56.405Z,-0.23
2023-03-11T22:38:23.432Z,-0.26
2023-03-11T22:40:51.256Z,-0.26
2023-03-11T22:43:18.219Z,-0.25
2023-03-11T22:45:45.815Z,-0.19
2023-03-11T22:48:12.835Z,-0.21
2023-03-11T22:50:44.515Z,-0.21
2023-03-11T22:53:12.591Z,-0.20
2023-03-11T22:55:41.236Z,-0.25
2023-03-11T22:58:08.490Z,-0.27
2023-03-11T23:00:36.280Z,-0.31
2023-03-11T23:03:03.812Z,-0.35
2023-03-11T23:05:31.079Z,-0.39
2023-03-11T23:07:57.907Z,-0.38
2023-03-11T23:10:24.662Z,-0.35
2023-03-11T23:12:51.330Z,-0.33
2023-03-11T23:15:18.856Z,-0.39
2023-03-11T23:17:45.715Z,-0.40
2023-03-11T23:20:15.105Z,-0.42
2023-03-11T23:22:43.119Z,-0.36
2023-03-11T23:25:15.453Z,-0.32
2023-03-11T23:27:44.653Z,-0.32
2023-03-11T23:30:13.980Z,-0.32
2023-03-11T23:32:40.969Z,-0.33
2023-03-11T23:35:09.078Z,-0.34
2023-03-11T23:37:35.919Z,-0.39
2023-03-11T23:40:04.393Z,-0.43
2023-03-11T23:42:35.088Z,-0.36
2023-03-11T23:45:02.061Z,-0.35
2023-03-11T23:47:28.818Z,-0.42
2023-03-11T23:49:55.675Z,-0.43
2023-03-11T23:52:22.824Z,-0.46
2023-03-11T23:54:49.912Z,-0.53
2023-03-11T23:57:16.925Z,-0.54
2023-03-11T23:59:44.175Z,-0.59
